This is the latest recevied weather packets stored in our database for station/object DB8NZ-11. If no packets are shown the sender has not sent any weather packets the latest 10 day(s).
| Time | Temp. | Humidity | Pressure | Rain* | Wind** | Luminosity | Snow |
|---|---|---|---|---|---|---|---|
| 1777864844 | 11.67° C | 63% | 1019.5 hPa | - | - | - | - |
| 1777863944 | 12.22° C | 62% | 1019.6 hPa | - | - | - | - |
| 1777863044 | 12.78° C | 60% | 1019.6 hPa | - | - | - | - |
| 1777862144 | 13.89° C | 58% | 1019.6 hPa | - | - | - | - |
| 1777861243 | 14.44° C | 55% | 1019.4 hPa | - | - | - | - |
| 1777860343 | 15° C | 54% | 1019.5 hPa | - | - | - | - |
| 1777859443 | 14.44° C | 56% | 1019.4 hPa | - | - | - | - |
| 1777858543 | 15.56° C | 55% | 1019.5 hPa | - | - | - | - |
| 1777857643 | 15.56° C | 52% | 1019.5 hPa | - | - | - | - |
| 1777855843 | 15.56° C | 51% | 1019.4 hPa | - | - | - | - |
| 1777854943 | 15.56° C | 52% | 1019.6 hPa | - | - | - | - |
| 1777854043 | 15° C | 53% | 1019.5 hPa | - | - | - | - |
| 1777853143 | 15° C | 53% | 1019.6 hPa | - | - | - | - |
| 1777852243 | 15° C | 52% | 1019.4 hPa | - | - | - | - |
| 1777851343 | 15° C | 52% | 1019.6 hPa | - | - | - | - |
| 1777850443 | 15.56° C | 50% | 1019.6 hPa | - | - | - | - |
| 1777849542 | 16.11° C | 49% | 1019.5 hPa | - | - | - | - |
| 1777848642 | 16.67° C | 45% | 1019.4 hPa | - | - | - | - |
| 1777847742 | 17.78° C | 42% | 1019.3 hPa | - | - | - | - |
| 1777846842 | 18.33° C | 40% | 1019.2 hPa | - | - | - | - |
| 1777845942 | 18.89° C | 37% | 1019.1 hPa | - | - | - | - |
| 1777845042 | 18.89° C | 36% | 1019 hPa | - | - | - | - |
| 1777844142 | 19.44° C | 36% | 1019.2 hPa | - | - | - | - |
| 1777843242 | 20° C | 35% | 1018.9 hPa | - | - | - | - |
| 1777842342 | 20° C | 35% | 1018.7 hPa | - | - | - | - |
* Rain since midnight (hover to see other rain measurements)
** Current wind speed in m/s (hover to see current wind gust speed)